^^
Datos históricos de la estación: Murcia-Puente Tocinos
Diario Informe para Noviembre 13, 2019 Unidades:  Ingés    Métrico   Ambas
Diario Semanal Mensual Anual
  Máxima: Mínima: Promedio:
Temperatura: 73.9 °F 53.4 °F 63.1 °F
Punto de rocio: 49.1 °F 35.4 °F 44.6 °F
Humedad: 70% 39% 52%
Velocidad viento: 19mph 0mph 5.6mph
Racha viento: 35mph - -
Viento- - SO
Presión: 29.9 in 29.7 in -
Precipitación: 0 in    
 
 
Tabla de datos para Noviembre 13, 2019
Hora Temperatura Punto de rocio Presión Viento Velocidad viento Racha viento Humedad Intensidad lluvia(por hora) Nubes
00:04 56.7 °F 35.4 °F 29.8 in SO 3.1 mph 5.2 mph 45% 0 in
00:09 56.7 °F 35.4 °F 29.8 in SSO 2.9 mph 5.2 mph 45% 0 in
00:14 56.7 °F 35.8 °F 29.8 in Oeste 2.9 mph 5.2 mph 45.6% 0 in
00:19 56.5 °F 36 °F 29.8 in OSO 2.9 mph 5 mph 46% 0 in
00:24 56.5 °F 36 °F 29.8 in SO 2.5 mph 5.4 mph 46% 0 in
00:29 56.3 °F 35.8 °F 29.8 in SO 2.4 mph 5 mph 46% 0 in
00:34 56.3 °F 35.8 °F 29.8 in SSO 2.2 mph 5 mph 46% 0 in
00:39 56.1 °F 35.6 °F 29.8 in SSE 2 mph 3.5 mph 46% 0 in
00:44 56.1 °F 36 °F 29.8 in SE 2 mph 4.6 mph 46.9% 0 in
00:49 56.1 °F 36.1 °F 29.8 in SSE 2 mph 5.8 mph 47.1% 0 in
00:54 55.9 °F 36.5 °F 29.8 in SSE 2.7 mph 6 mph 48% 0 in
00:59 55.8 °F 37 °F 29.8 in SE 3.1 mph 7.4 mph 49.2% 0 in
01:04 55.2 °F 37.4 °F 29.8 in SE 3.7 mph 7 mph 50.8% 0 in
01:09 54.9 °F 37.6 °F 29.8 in SSE 4 mph 7 mph 52.2% 0 in
01:14 54.3 °F 37.6 °F 29.8 in SSE 4 mph 7.4 mph 53% 0 in
01:19 54.1 °F 37.8 °F 29.8 in Sur 4 mph 7 mph 53.9% 0 in
01:24 54.1 °F 37.8 °F 29.8 in SSE 4 mph 6.9 mph 54% 0 in
01:29 54 °F 37.8 °F 29.8 in Sur 4 mph 7 mph 54% 0 in
01:34 54.1 °F 37.8 °F 29.8 in SSE 3.4 mph 5 mph 54% 0 in
01:39 54.1 °F 37.8 °F 29.8 in SSE 2.9 mph 4.6 mph 54% 0 in
01:44 54.3 °F 37.6 °F 29.8 in SE 2.6 mph 5 mph 53.3% 0 in
01:49 54.5 °F 37.8 °F 29.8 in SE 2.4 mph 6.9 mph 53% 0 in
01:54 54.7 °F 37.9 °F 29.8 in SE 3.4 mph 7 mph 53.1% 0 in
01:59 54.7 °F 37.9 °F 29.8 in SSE 4 mph 7 mph 53% 0 in
02:04 54.9 °F 37.9 °F 29.8 in Sur 3.4 mph 6 mph 53% 0 in
02:09 54.9 °F 37.9 °F 29.8 in Sur 3.1 mph 5 mph 53% 0 in
02:14 54.9 °F 38.1 °F 29.8 in SSE 2.7 mph 5.9 mph 53% 0 in
02:19 55 °F 38.3 °F 29.8 in SE 2.4 mph 6 mph 53% 0 in
02:24 55.2 °F 38.3 °F 29.8 in SSE 3.2 mph 6.2 mph 52.7% 0 in
02:29 55.2 °F 38.5 °F 29.8 in SSE 3.6 mph 6 mph 53% 0 in
02:34 55.2 °F 38.3 °F 29.8 in Sur 3.6 mph 6 mph 52.7% 0 in
02:39 55.4 °F 37.9 °F 29.8 in SSE 3.6 mph 6.2 mph 52% 0 in
02:44 55.6 °F 37.9 °F 29.8 in Sur 4 mph 7.4 mph 51.5% 0 in
02:49 55.6 °F 38.3 °F 29.8 in SSE 4.3 mph 8.1 mph 52% 0 in
02:54 55.8 °F 38.3 °F 29.8 in SSE 4.8 mph 8.1 mph 52% 0 in
02:59 55.8 °F 38.1 °F 29.8 in SSE 5.2 mph 8 mph 51.5% 0 in
03:04 55.8 °F 38.1 °F 29.8 in SSE 4.4 mph 6 mph 51.5% 0 in
03:09 55.9 °F 38.3 °F 29.8 in SSE 4 mph 5 mph 51.6% 0 in
03:14 55.9 °F 38.7 °F 29.8 in SSE 2.6 mph 3 mph 52% 0 in
03:19 55.9 °F 39 °F 29.8 in SSE 1.8 mph 4.6 mph 52.9% 0 in
03:24 55.9 °F 38.8 °F 29.8 in SE 1.8 mph 5 mph 52.8% 0 in
03:29 55.8 °F 38.8 °F 29.7 in SE 1.8 mph 2.4 mph 53% 0 in
03:34 55.8 °F 38.7 °F 29.7 in SE 1.6 mph 2.4 mph 52.5% 0 in
03:39 55.8 °F 38.8 °F 29.7 in SE 1.4 mph 2.4 mph 53% 0 in
03:44 55.8 °F 38.7 °F 29.7 in SE 1.4 mph 2.3 mph 52.5% 0 in
03:49 55.9 °F 39 °F 29.7 in SE 1.4 mph 2.3 mph 52.9% 0 in
03:54 55.9 °F 39 °F 29.7 in SSE 0.5 mph 2.3 mph 53.1% 0 in
03:59 55.9 °F 39.6 °F 29.7 in Calm   2.4 mph 54% 0 in
04:04 55.8 °F 39.4 °F 29.7 in Oeste 0.9 mph 2.4 mph 54% 0 in
04:09 55.6 °F 39.6 °F 29.7 in NO 1.4 mph 3.5 mph 54.7% 0 in
04:14 55.4 °F 39.6 °F 29.7 in NO 0.5 mph 3 mph 55.4% 0 in
04:19 55.2 °F 39.4 °F 29.7 in Calm   2.9 mph 55.2% 0 in
04:24 55 °F 39.6 °F 29.7 in NO 0.9 mph 3 mph 55.9% 0 in
04:29 55 °F 39.6 °F 29.7 in NO 1.4 mph 3 mph 56% 0 in
04:34 55 °F 39.7 °F 29.7 in NO 0.5 mph   56.3% 0 in
04:39 55 °F 39.6 °F 29.7 in Calm   4.6 mph 56% 0 in
04:44 54.9 °F 39.7 °F 29.7 in NO 1.2 mph 5 mph 56.6% 0 in
04:49 54.7 °F 39.7 °F 29.7 in NO 2 mph 3 mph 57% 0 in
04:54 54.9 °F 39.7 °F 29.7 in North 1.6 mph 3.6 mph 57% 0 in
04:59 55 °F 40.1 °F 29.7 in SE 1.4 mph 4 mph 57% 0 in
05:04 55 °F 40.3 °F 29.7 in SSO 1.4 mph 4.6 mph 57.4% 0 in
05:09 55 °F 40.1 °F 29.7 in ONO 1.4 mph 5 mph 57.2% 0 in
05:14 54.9 °F 40.1 °F 29.7 in ONO 2.1 mph 5 mph 57.3% 0 in
05:19 54.7 °F 40.3 °F 29.7 in NO 2.4 mph 5.9 mph 58% 0 in
05:24 54.5 °F 40.3 °F 29.7 in ONO 2.7 mph 6 mph 58.6% 0 in
05:29 54.1 °F 40.3 °F 29.7 in ONO 2.9 mph 6.9 mph 59.3% 0 in
05:34 54.1 °F 40.6 °F 29.7 in ONO 3.4 mph 7 mph 60% 0 in
05:39 54.1 °F 40.6 °F 29.7 in OSO 3.6 mph 5 mph 60.1% 0 in
05:44 54.1 °F 41 °F 29.7 in Oeste 3.2 mph 5 mph 60.8% 0 in
05:49 54.1 °F 41.4 °F 29.7 in Oeste 2.9 mph 5 mph 62% 0 in
05:54 54.3 °F 41.5 °F 29.7 in Sur 1.9 mph 3.5 mph 62% 0 in
05:59 54.5 °F 42.1 °F 29.7 in SSE 1.4 mph 4.7 mph 62.8% 0 in
06:04 54.7 °F 42.4 °F 29.7 in SSE 2.4 mph 5.2 mph 63.4% 0 in
06:09 54.7 °F 42.1 °F 29.7 in Sur 2.9 mph 5 mph 62.6% 0 in
06:14 54.5 °F 42.4 °F 29.7 in SSE 3 mph 6.9 mph 63.6% 0 in
06:19 54.3 °F 43 °F 29.7 in ESE 3.1 mph 7 mph 65.4% 0 in
06:24 54.1 °F 43 °F 29.7 in ESE 3.4 mph 6 mph 66.1% 0 in
06:29 54 °F 43.3 °F 29.7 in SE 3.6 mph 6.4 mph 67.1% 0 in
06:34 53.8 °F 43.5 °F 29.7 in SSE 3.6 mph 7 mph 67.9% 0 in
06:39 53.4 °F 43.2 °F 29.7 in Sur 3.6 mph 7 mph 67.9% 0 in
06:44 53.4 °F 42.8 °F 29.7 in Sur 3.9 mph 6 mph 67.1% 0 in
06:49 53.6 °F 42.8 °F 29.7 in SSO 4 mph 6 mph 67% 0 in
06:54 53.8 °F 43.2 °F 29.7 in SSO 3.7 mph 5 mph 67% 0 in
06:59 54 °F 43.3 °F 29.7 in Sur 3.6 mph 5 mph 67.4% 0 in
07:04 54 °F 43.3 °F 29.7 in Sur 2.5 mph 5.4 mph 67.1% 0 in
07:09 54 °F 43.2 °F 29.7 in Sur 2 mph 6 mph 67% 0 in
07:14 54 °F 43 °F 29.7 in SSO 3 mph 6 mph 66.4% 0 in
07:19 54 °F 42.8 °F 29.7 in Sur 3.6 mph 6 mph 65.6% 0 in
07:24 54 °F 42.8 °F 29.7 in SSO 3.3 mph 6 mph 65.8% 0 in
07:29 54 °F 42.6 °F 29.7 in OSO 3.1 mph 5 mph 65.2% 0 in
07:34 54 °F 42.4 °F 29.7 in OSO 2.4 mph 4 mph 65% 0 in
07:39 54 °F 42.6 °F 29.7 in Oeste 2 mph 5.8 mph 65.3% 0 in
07:44 53.8 °F 42.8 °F 29.7 in Oeste 2.2 mph 6 mph 66.1% 0 in
07:49 53.8 °F 43 °F 29.7 in OSO 2.4 mph 5 mph 66.8% 0 in
07:54 53.4 °F 42.6 °F 29.7 in SSE 2 mph 4 mph 66.8% 0 in
07:59 53.4 °F 42.6 °F 29.7 in Este 1.8 mph 3 mph 66.7% 0 in
08:04 53.4 °F 43.2 °F 29.7 in NE 1.6 mph 3 mph 68% 0 in
08:09 53.4 °F 43.5 °F 29.7 in NE 1.4 mph 2.4 mph 69.1% 0 in
08:14 53.8 °F 44.1 °F 29.7 in NE 0.5 mph 2.9 mph 70% 0 in
08:19 54 °F 44.2 °F 29.7 in Calm   3 mph 69.5% 0 in
08:24 54.1 °F 44.2 °F 29.7 in NE 0.9 mph 3.5 mph 69% 0 in
08:29 54.3 °F 44.1 °F 29.7 in SE 1.4 mph 4.6 mph 67.8% 0 in
08:34 54.5 °F 44.1 °F 29.7 in Sur 1.8 mph 5 mph 67.8% 0 in
08:39 54.7 °F 44.4 °F 29.7 in Sur 2 mph 4 mph 68.1% 0 in
08:44 54.9 °F 43.9 °F 29.7 in SSE 1.9 mph 5 mph 66.3% 0 in
08:49 55 °F 43.9 °F 29.7 in SSE 1.8 mph 5 mph 65.9% 0 in
08:54 55.2 °F 44.1 °F 29.7 in SSE 1.9 mph 4.7 mph 66% 0 in
08:59 55.4 °F 43.9 °F 29.7 in Sur 2 mph 5.8 mph 65.2% 0 in
09:04 55.6 °F 44.1 °F 29.7 in SSO 3 mph 6.2 mph 65% 0 in
09:09 55.8 °F 43.9 °F 29.7 in SO 3.6 mph 6.2 mph 64% 0 in
09:14 56.1 °F 43.3 °F 29.7 in SO 3.6 mph 6 mph 61.9% 0 in
09:19 56.7 °F 43 °F 29.7 in OSO 3.6 mph 6 mph 60.2% 0 in
09:24 57 °F 42.8 °F 29.7 in Oeste 3.2 mph 5.2 mph 59% 0 in
09:29 57.6 °F 42.8 °F 29.7 in OSO 2.9 mph 5.2 mph 58.1% 0 in
09:34 57.7 °F 42.6 °F 29.7 in SO 3 mph 5 mph 57.1% 0 in
09:39 57.9 °F 42.8 °F 29.7 in SO 3.1 mph 5 mph 56.8% 0 in
09:44 58.3 °F 42.6 °F 29.7 in SSO 2.7 mph 5 mph 55.8% 0 in
09:49 58.6 °F 42.6 °F 29.7 in Sur 2.4 mph 5 mph 55.3% 0 in
09:54 59.4 °F 42.8 °F 29.7 in SSE 2.4 mph 5 mph 54.4% 0 in
09:59 59.9 °F 43 °F 29.7 in Sur 2.4 mph 4.7 mph 53.5% 0 in
10:04 60.4 °F 43.2 °F 29.7 in SSE 2.4 mph 5 mph 52.9% 0 in
10:09 60.8 °F 43 °F 29.7 in Sur 2.4 mph 5 mph 51.8% 0 in
10:14 61.3 °F 43.2 °F 29.7 in SSO 2.2 mph 5 mph 51% 0 in
10:19 61.9 °F 43.2 °F 29.7 in Sur 2 mph 5.2 mph 50.2% 0 in
10:24 62.2 °F 43.3 °F 29.7 in SSO 2.5 mph 5.2 mph 50% 0 in
10:29 62.4 °F 43.2 °F 29.7 in Sur 2.9 mph 6.2 mph 49.4% 0 in
10:34 62.8 °F 43.5 °F 29.7 in SSO 3.4 mph 6.4 mph 49.5% 0 in
10:39 63 °F 44.1 °F 29.7 in SSO 3.6 mph 7.4 mph 50.1% 0 in
10:44 63.5 °F 45 °F 29.7 in SO 4 mph 7 mph 50.8% 0 in
10:49 64 °F 45.5 °F 29.7 in SO 4.3 mph 11.8 mph 51% 0 in
10:54 64.6 °F 46 °F 29.7 in SO 4.3 mph 12 mph 51% 0 in
10:59 65.1 °F 46.2 °F 29.7 in SSO 4.3 mph 11.8 mph 50.5% 0 in
11:04 65.5 °F 46.4 °F 29.7 in SSO 5.3 mph 12 mph 50% 0 in
11:09 65.8 °F 46.8 °F 29.7 in SO 5.9 mph 10.4 mph 50.1% 0 in
11:14 66.6 °F 47.1 °F 29.7 in SSO 5.9 mph 10.4 mph 49.8% 0 in
11:19 67.1 °F 47.3 °F 29.7 in SO 5.9 mph 12.7 mph 49.3% 0 in
11:24 67.3 °F 47.5 °F 29.7 in SO 6.8 mph 15 mph 49% 0 in
11:29 67.6 °F 47.7 °F 29.7 in SO 7.4 mph 15 mph 48.7% 0 in
11:34 68.2 °F 47.7 °F 29.7 in SO 7.5 mph 13 mph 48% 0 in
11:39 68.5 °F 48 °F 29.7 in SO 7.6 mph 13 mph 48% 0 in
11:44 68.7 °F 47.8 °F 29.7 in SO 6.7 mph 10.7 mph 47.1% 0 in
11:49 68.7 °F 47.7 °F 29.7 in SO 6.2 mph 11.5 mph 47% 0 in
11:54 69.1 °F 48 °F 29.7 in SO 6.2 mph 12 mph 47.2% 0 in
11:59 69.4 °F 48 °F 29.7 in OSO 6.2 mph 9.2 mph 46.4% 0 in
12:04 70.2 °F 48 °F 29.7 in Oeste 5.2 mph 10.4 mph 45.4% 0 in
12:09 70.7 °F 48.4 °F 29.7 in OSO 4.7 mph 13 mph 45% 0 in
12:14 71.2 °F 48.2 °F 29.7 in Oeste 6.1 mph 17.3 mph 43.9% 0 in
12:19 71.8 °F 48 °F 29.7 in ONO 6.9 mph 17.3 mph 43% 0 in
12:24 72.1 °F 48.2 °F 29.7 in Oeste 9.6 mph 20.8 mph 42.7% 0 in
12:29 72.3 °F 47.8 °F 29.7 in Oeste 11.2 mph 21 mph 42% 0 in
12:34 72.3 °F 47.8 °F 29.7 in Oeste 11.6 mph 21 mph 41.9% 0 in
12:39 72.5 °F 47.7 °F 29.7 in OSO 11.8 mph 22.3 mph 41.3% 0 in
12:44 72.7 °F 47.7 °F 29.7 in OSO 11.4 mph 22 mph 41% 0 in
12:49 72.9 °F 48 °F 29.7 in OSO 11.2 mph 18.5 mph 41.4% 0 in
12:54 72.9 °F 48 °F 29.7 in ONO 9.6 mph 19 mph 41.4% 0 in
12:59 73.2 °F 48 °F 29.7 in ONO 8.7 mph 20.7 mph 40.7% 0 in
13:04 73.6 °F 47.7 °F 29.7 in Oeste 10.8 mph 25.3 mph 39.8% 0 in
13:09 73.8 °F 47.5 °F 29.7 in Oeste 11.8 mph 25 mph 39.2% 0 in
13:14 73.9 °F 47.5 °F 29.7 in ONO 14.2 mph 23 mph 39% 0 in
13:19 73.8 °F 47.3 °F 29.7 in ONO 15.6 mph 27.6 mph 39% 0 in
13:24 73.8 °F 47.3 °F 29.7 in ONO 14.6 mph 28 mph 39% 0 in
13:29 73.8 °F 47.3 °F 29.7 in Oeste 14 mph 29.9 mph 39% 0 in
13:34 73.8 °F 47.3 °F 29.7 in ONO 15.2 mph 30 mph 39% 0 in
13:39 73.8 °F 47.3 °F 29.7 in Oeste 15.9 mph 30.6 mph 39% 0 in
13:44 73.4 °F 46.9 °F 29.7 in Oeste 17.1 mph 34.5 mph 39.1% 0 in
13:49 73 °F 47.3 °F 29.7 in ONO 17.8 mph 35 mph 40% 0 in
13:54 73 °F 47.1 °F 29.7 in ONO 18.6 mph 32.2 mph 39.7% 0 in
13:59 72.9 °F 47.1 °F 29.7 in ONO 19 mph 32 mph 40% 0 in
14:04 72.7 °F 46.9 °F 29.7 in Oeste 18 mph 29.1 mph 40% 0 in
14:09 72.9 °F 47.1 °F 29.7 in Oeste 17.5 mph 29 mph 40% 0 in
14:14 72.7 °F 47.1 °F 29.7 in Oeste 16.3 mph 29 mph 40% 0 in
14:19 72.5 °F 46.9 °F 29.7 in Oeste 15.6 mph 31.1 mph 40% 0 in
14:24 72.7 °F 46.9 °F 29.7 in Oeste 15.8 mph 31 mph 40% 0 in
14:29 72.7 °F 47.1 °F 29.7 in ONO 15.9 mph 26.1 mph 40.2% 0 in
14:34 72.9 °F 47.1 °F 29.7 in Oeste 15.9 mph 27.9 mph 40% 0 in
14:39 72.9 °F 47.1 °F 29.7 in Oeste 15.9 mph 28 mph 40% 0 in
14:44 73 °F 47.3 °F 29.7 in Oeste 15.9 mph 26.5 mph 40% 0 in
14:49 73 °F 47.3 °F 29.7 in Oeste 15.9 mph 26 mph 39.9% 0 in
14:54 73 °F 47.3 °F 29.7 in Oeste 15.2 mph 27.6 mph 39.9% 0 in
14:59 73 °F 46.6 °F 29.7 in Oeste 14.7 mph 28 mph 39% 0 in
15:04 73 °F 46.6 °F 29.7 in Oeste 15.5 mph 31.1 mph 39.1% 0 in
15:09 73 °F 46.6 °F 29.7 in ONO 15.9 mph 31 mph 39% 0 in
15:14 72.9 °F 46.6 °F 29.7 in Oeste 15.2 mph 28 mph 39.3% 0 in
15:19 72.9 °F 47.1 °F 29.7 in Oeste 14.7 mph 25.6 mph 40% 0 in
15:24 72.7 °F 46.9 °F 29.7 in Oeste 13.3 mph 26 mph 40% 0 in
15:29 72.7 °F 46.9 °F 29.7 in Oeste 12.5 mph 24 mph 40% 0 in
15:34 72.9 °F 46.6 °F 29.7 in Oeste 12.8 mph 26.8 mph 39.2% 0 in
15:39 73.2 °F 46.8 °F 29.7 in Oeste 13 mph 27 mph 39% 0 in
15:44 73.2 °F 46.8 °F 29.7 in Oeste 13.4 mph 25.3 mph 39.1% 0 in
15:49 73.4 °F 47.5 °F 29.7 in OSO 13.7 mph 25 mph 40% 0 in
15:54 73.6 °F 47.1 °F 29.7 in Oeste 11.2 mph 21.9 mph 39.2% 0 in
15:59 73.4 °F 47.1 °F 29.7 in Oeste 9.7 mph 22 mph 39.4% 0 in
16:04 73.4 °F 47.5 °F 29.7 in Oeste 10 mph 19 mph 39.9% 0 in
16:09 73.2 °F 47.5 °F 29.7 in Oeste 10.2 mph 20.4 mph 40% 0 in
16:14 73 °F 47.3 °F 29.7 in Oeste 10.5 mph 27.6 mph 40% 0 in
16:19 73 °F 47.3 °F 29.7 in Oeste 10.7 mph 28 mph 40% 0 in
16:24 72.9 °F 47.1 °F 29.8 in Oeste 12.2 mph 26 mph 40.1% 0 in
16:29 72.9 °F 47.7 °F 29.8 in Oeste 13 mph 23.5 mph 40.7% 0 in
16:34 72.9 °F 47.5 °F 29.8 in ONO 10.6 mph 23.5 mph 40.8% 0 in
16:39 72.7 °F 47.5 °F 29.8 in NO 9.2 mph 23 mph 41% 0 in
16:44 72.3 °F 47.3 °F 29.8 in NO 9.2 mph 21 mph 41% 0 in
16:49 72.1 °F 47.1 °F 29.8 in NO 9.2 mph 18 mph 41% 0 in
16:54 72 °F 46.9 °F 29.8 in NO 9.5 mph 17.5 mph 41% 0 in
16:59 71.8 °F 46.8 °F 29.8 in NO 9.7 mph 20.7 mph 41% 0 in
17:04 71.8 °F 47.3 °F 29.8 in ONO 10.7 mph 21 mph 42% 0 in
17:09 71.4 °F 47.1 °F 29.8 in NO 11.2 mph 20.7 mph 42% 0 in
17:14 71.2 °F 47.5 °F 29.8 in ONO 11.3 mph 21 mph 42.6% 0 in
17:19 71.2 °F 47.7 °F 29.8 in NO 11.4 mph 18 mph 43% 0 in
17:24 71.1 °F 47.5 °F 29.8 in NO 9.7 mph 20.7 mph 43% 0 in
17:29 71.1 °F 47.8 °F 29.8 in NO 8.7 mph 21 mph 43.7% 0 in
17:34 71.1 °F 48 °F 29.8 in ONO 9.5 mph 19 mph 44% 0 in
17:39 70.9 °F 47.8 °F 29.8 in NO 10 mph 16.1 mph 44% 0 in
17:44 70.9 °F 47.8 °F 29.8 in NO 9.2 mph 16.1 mph 44.1% 0 in
17:49 70.5 °F 48.2 °F 29.8 in NO 8.7 mph 16.1 mph 45% 0 in
17:54 70.3 °F 48 °F 29.8 in NO 9.3 mph 16 mph 45% 0 in
17:59 70.2 °F 48 °F 29.8 in ONO 9.7 mph 15 mph 45.3% 0 in
18:04 70.2 °F 48.4 °F 29.8 in ONO 9 mph 16.1 mph 46% 0 in
18:09 70.2 °F 48.2 °F 29.8 in ONO 8.7 mph 16 mph 46% 0 in
18:14 69.8 °F 48.4 °F 29.8 in ONO 8.6 mph 14 mph 46.4% 0 in
18:19 69.6 °F 48.6 °F 29.8 in ONO 8.5 mph 14 mph 47% 0 in
18:24 69.6 °F 48.6 °F 29.8 in ONO 7.5 mph 12 mph 47% 0 in
18:29 69.4 °F 48.6 °F 29.8 in ONO 6.9 mph 9 mph 47.3% 0 in
18:34 69.4 °F 48.9 °F 29.8 in NO 5.8 mph 10.4 mph 48% 0 in
18:39 69.3 °F 48.7 °F 29.8 in ONO 5.2 mph 10.4 mph 48% 0 in
18:44 69.3 °F 48.7 °F 29.8 in ONO 5.2 mph 9.2 mph 48% 0 in
18:49 69.1 °F 48.6 °F 29.8 in ONO 5.2 mph 9 mph 48% 0 in
18:54 69.1 °F 49.1 °F 29.8 in ONO 4.6 mph 8.5 mph 49% 0 in
18:59 68.7 °F 48.9 °F 29.8 in ONO 4.3 mph 9 mph 49% 0 in
19:04 68.7 °F 48.7 °F 29.8 in ONO 4.6 mph 8 mph 49% 0 in
19:09 68.5 °F 49.1 °F 29.8 in Oeste 4.7 mph 7 mph 49.8% 0 in
19:14 68.5 °F 49.1 °F 29.8 in Oeste 4 mph 6 mph 50% 0 in
19:19 68.4 °F 48.9 °F 29.8 in Oeste 3.6 mph 5 mph 50% 0 in
19:24 68.4 °F 48.9 °F 29.8 in Oeste 2.5 mph 3 mph 50% 0 in
19:29 68.2 °F 48.7 °F 29.8 in Oeste 2 mph 2.9 mph 50% 0 in
19:34 68.2 °F 48.7 °F 29.8 in Oeste 1.6 mph 4.6 mph 50% 0 in
19:39 68.4 °F 48.9 °F 29.8 in ONO 1.4 mph 5 mph 50% 0 in
19:44 68.4 °F 48.9 °F 29.8 in ONO 2.5 mph 5.9 mph 50% 0 in
19:49 68.4 °F 48.9 °F 29.8 in ONO 3.1 mph 6 mph 50% 0 in
19:54 68.4 °F 48.9 °F 29.8 in ONO 3.9 mph 6 mph 50% 0 in
19:59 68.2 °F 48.7 °F 29.8 in ONO 4.3 mph 6.2 mph 50% 0 in
20:04 68.2 °F 49.1 °F 29.8 in NO 4.1 mph 6.9 mph 50.6% 0 in
20:09 67.8 °F 49.1 °F 29.8 in NO 4 mph 7 mph 51% 0 in
20:14 67.6 °F 48.9 °F 29.8 in NO 4.2 mph 7.4 mph 51% 0 in
20:19 67.5 °F 48.7 °F 29.8 in NO 4.3 mph 7 mph 51% 0 in
20:24 67.5 °F 48.7 °F 29.8 in NO 4.3 mph 7.4 mph 51% 0 in
20:29 67.5 °F 48.7 °F 29.8 in NNO 4.3 mph 7.4 mph 51% 0 in
20:34 67.5 °F 48.7 °F 29.8 in NO 4.5 mph 7.4 mph 51% 0 in
20:39 67.5 °F 48.2 °F 29.8 in NO 4.7 mph 9.2 mph 50.1% 0 in
20:44 67.6 °F 48.2 °F 29.8 in NO 5.2 mph 10.4 mph 50% 0 in
20:49 67.6 °F 48.4 °F 29.8 in ONO 5.4 mph 10.4 mph 50% 0 in
20:54 67.5 °F 48.2 °F 29.8 in ONO 5.9 mph 10 mph 50% 0 in
20:59 67.5 °F 48.4 °F 29.8 in NO 6.2 mph 10.4 mph 50.6% 0 in
21:04 67.3 °F 48.4 °F 29.8 in ONO 6.2 mph 10 mph 51% 0 in
21:09 66.9 °F 48.2 °F 29.8 in SO 6.2 mph 8 mph 51% 0 in
21:14 66.9 °F 48.2 °F 29.8 in Sur 4.5 mph 6.2 mph 51% 0 in
21:19 66.9 °F 48.2 °F 29.8 in SSO 3.6 mph 8.5 mph 51% 0 in
21:24 66.7 °F 48 °F 29.9 in SSO 4 mph 9.2 mph 51% 0 in
21:29 66.6 °F 47.8 °F 29.9 in SSO 4.3 mph 9.2 mph 51% 0 in
21:34 66.4 °F 47.7 °F 29.9 in SSO 5.3 mph 9.2 mph 51% 0 in
21:39 66.2 °F 47.5 °F 29.9 in SO 5.9 mph 9 mph 51% 0 in
21:44 66 °F 47.5 °F 29.9 in SO 5.2 mph 7 mph 51% 0 in
21:49 65.8 °F 47.3 °F 29.9 in SO 4.7 mph 7 mph 51% 0 in
21:54 65.8 °F 47.3 °F 29.9 in SO 4.2 mph 6 mph 51.3% 0 in
21:59 65.8 °F 47.7 °F 29.9 in SO 4 mph 6.9 mph 52% 0 in
22:04 65.7 °F 47.5 °F 29.9 in SO 4 mph 7 mph 52% 0 in
22:09 65.7 °F 47.5 °F 29.9 in SO 4 mph 6 mph 52% 0 in
22:14 65.7 °F 47.5 °F 29.8 in SO 3.3 mph 5 mph 52% 0 in
22:19 65.5 °F 47.5 °F 29.8 in SO 2.9 mph 4 mph 52% 0 in
22:24 65.3 °F 47.5 °F 29.8 in OSO 2.2 mph 4.7 mph 52.5% 0 in
22:29 64.9 °F 47.5 °F 29.8 in Oeste 1.8 mph 5.2 mph 53% 0 in
22:34 64.6 °F 47.7 °F 29.8 in Oeste 2.6 mph 5.2 mph 54% 0 in
22:39 64.2 °F 47.7 °F 29.9 in OSO 3.1 mph 5 mph 54.8% 0 in
22:44 64 °F 47.5 °F 29.9 in SO 2.7 mph 5 mph 55% 0 in
22:49 63.9 °F 47.5 °F 29.9 in Sur 2.4 mph 4.7 mph 55.2% 0 in
22:54 63.9 °F 47.8 °F 29.9 in Sur 2.4 mph 5 mph 56% 0 in
22:59 63.7 °F 47.7 °F 29.9 in SO 2.4 mph 5 mph 55.7% 0 in
23:04 63.7 °F 47.5 °F 29.9 in Oeste 2.4 mph 5 mph 55.8% 0 in
23:09 63.5 °F 47.5 °F 29.9 in ONO 2.4 mph 5 mph 56% 0 in
23:14 63.1 °F 47.7 °F 29.8 in North 2 mph 6.2 mph 57% 0 in
23:19 62.4 °F 48 °F 29.8 in ENE 1.8 mph 6 mph 59.1% 0 in
23:24 62.1 °F 47.8 °F 29.8 in ESE 3.2 mph 6 mph 60.1% 0 in
23:29 61.5 °F 48 °F 29.8 in ESE 4 mph 6 mph 61% 0 in
23:34 61.2 °F 47.8 °F 29.8 in ESE 3.4 mph 6 mph 61.2% 0 in
23:39 61 °F 47.8 °F 29.8 in Este 3.1 mph 5 mph 62% 0 in
23:44 60.6 °F 47.5 °F 29.8 in ENE 2 mph 2.4 mph 62% 0 in
23:49 60.4 °F 47.7 °F 29.8 in NNE 1.4 mph 2 mph 62.6% 0 in
23:54 60.4 °F 47.7 °F 29.8 in NNE 0.5 mph 3.6 mph 63% 0 in
23:59 60.3 °F 47.8 °F 29.8 in Calm   4.6 mph 63.8% 0 in
Murcia-Puente Tocinos, España
Compliments of Weather Underground - 3 mb

La estación de MeteoMurcia.com, publica sus datos en los siguientes proyectos:

Weather Underground PWS IMURCIAP2 Meteoclimatic www.awekas.at

W3Counter
Web Analytics